»·PEaware :: TEXAN27 KRND-KRND

TEXAN27 :: KRND-KRND

FLIGHT INFORMATION

Flight Status: Arrived
Operator: Unknown
More flights by this operator :: More flights under this callsign
Pilot: Indie I. (23348)
Aircraft: BEECH AIRCRAFT T-6A TEXAN
(TEX2)
More flights by this aircraft type
Origin: KRND Randolph AFB
United States
Destination: KRND Randolph AFB
United States
More flights between these airports :: More routes between these airports
Route: KRND KPEZ KRND
File this flight plan on PilotEdge
Remarks: FALLS6 Departure VFR to KPEZ
Altitude:
(Current/Filed)
4,500ft
Speed:
(Current/Filed)
200kts
Departed: 03-Sep-20 05:21 AM
Arrived: 03-Sep-20 05:53 AM
Distance/Time
Traveled:
0nm/0:32
Distance/Time
To Go:
Arrived

Flight Plot

Page will automatically refresh every two minutes.

Flight plan parsing failed; only flown route is shown


Map Options




Map Legend


Flown Route
Filed Route
Departure Airport
Arrival Airport
Navaid (VOR, NDB)
Fix

Horizontal Profiles

Position Reports

Time Latitude Longitude Heading Altitude Ground
Speed
03-Sep-20 05:01 29.534747 -98.291642 149 766ft 0kts
03-Sep-20 05:02 29.534745 -98.291640 149 765ft 0kts
03-Sep-20 05:03 29.534743 -98.291639 149 765ft 0kts
03-Sep-20 05:04 29.534740 -98.291637 149 765ft 0kts
03-Sep-20 05:05 29.534738 -98.291635 149 765ft 0kts
03-Sep-20 05:06 29.534735 -98.291634 149 765ft 0kts
03-Sep-20 05:07 29.534733 -98.291632 149 765ft 0kts
03-Sep-20 05:08 29.534730 -98.291630 149 765ft 0kts
03-Sep-20 05:09 29.534728 -98.291629 149 765ft 0kts
03-Sep-20 05:10 29.534725 -98.291627 149 765ft 0kts
03-Sep-20 05:11 29.534717 -98.291621 149 765ft 0kts
03-Sep-20 05:12 29.533767 -98.290964 148 765ft 15kts
03-Sep-20 05:13 29.533767 -98.290964 148 765ft 15kts
03-Sep-20 05:14 29.534501 -98.291212 276 765ft 12kts
03-Sep-20 05:15 29.534512 -98.292100 269 765ft 0kts
03-Sep-20 05:16 29.534512 -98.292102 269 765ft 0kts
03-Sep-20 05:17 29.534512 -98.292102 269 765ft 0kts
03-Sep-20 05:18 29.534512 -98.292110 269 765ft 0kts
03-Sep-20 05:19 29.534115 -98.292724 154 765ft 7kts
03-Sep-20 05:20 29.506008 -98.277069 188 1644ft 202kts
03-Sep-20 05:21 29.445201 -98.287235 211 3362ft 250kts
03-Sep-20 05:22 29.385830 -98.323781 204 4677ft 243kts
03-Sep-20 05:23 29.324632 -98.352831 201 4535ft 235kts
03-Sep-20 05:24 29.264821 -98.379178 201 4788ft 225kts
03-Sep-20 05:25 29.205429 -98.408127 203 4436ft 239kts
03-Sep-20 05:26 29.146102 -98.438177 204 4012ft 202kts
03-Sep-20 05:27 29.097344 -98.460142 200 3317ft 179kts
03-Sep-20 05:28 29.065189 -98.475070 202 2999ft 175kts
03-Sep-20 05:29 29.024057 -98.508873 233 2572ft 193kts
03-Sep-20 05:31 28.983855 -98.530585 161 1533ft 170kts
03-Sep-20 05:32 28.944515 -98.515994 143 1058ft 126kts
03-Sep-20 05:33 28.973644 -98.515501 344 1526ft 153kts
03-Sep-20 05:34 28.956212 -98.520685 163 444ft 95kts
03-Sep-20 05:35 28.941468 -98.500825 357 1470ft 176kts
03-Sep-20 05:36 28.983477 -98.519454 284 1540ft 126kts
03-Sep-20 05:37 28.956543 -98.520800 163 438ft 86kts
03-Sep-20 05:38 28.926472 -98.497817 106 2366ft 181kts
03-Sep-20 05:39 28.973092 -98.472776 4 3660ft 227kts
03-Sep-20 05:40 29.033862 -98.464521 10 3730ft 234kts
03-Sep-20 05:41 29.096978 -98.448323 16 3543ft 227kts
03-Sep-20 05:42 29.156745 -98.427742 14 3573ft 228kts
03-Sep-20 05:43 29.216832 -98.404685 18 3582ft 225kts
03-Sep-20 05:44 29.276561 -98.381848 20 3207ft 224kts
03-Sep-20 05:45 29.333184 -98.360753 18 1802ft 211kts
03-Sep-20 05:46 29.389605 -98.337848 18 1839ft 215kts
03-Sep-20 05:47 29.447390 -98.318933 18 1797ft 217kts
03-Sep-20 05:48 29.502177 -98.327218 13 1789ft 215kts
03-Sep-20 05:49 29.555630 -98.342815 50 1758ft 204kts
03-Sep-20 05:49 29.546889 -98.301878 146 1805ft 209kts
03-Sep-20 05:51 29.538349 -98.312530 333 1742ft 135kts
03-Sep-20 05:51 29.533638 -98.292401 150 789ft 107kts
03-Sep-20 05:52 29.526452 -98.287104 61 765ft 7kts
03-Sep-20 05:54 29.526452 -98.287104 61 765ft 7kts

Navigation Log

Ident Type
Flight plan parsing failed, navigation log unavailable